Time;durP1;ratioP1;P1;durP2;ratioP2;P2;SDS_P1;SDS_P2;PMS_P1;PMS_P2;Temp;Humidity;BMP_temperature;BMP_pressure;BME280_temperature;BME280_humidity;BME280_pressure;Samples;Min_cycle;Max_cycle;Signal;HPM_P1;HPM_P2
2023/04/17 07:12:59;;;;;;;14.27;12.60;;;;;;;5.78;100.00;99231.31;15280567;19;20006;-83
2023/04/17 07:18:24;;;;;;;19.10;15.35;;;;;;;5.85;100.00;99229.94;15288629;19;20018;-83
2023/04/17 07:23:50;;;;;;;14.85;12.95;;;;;;;5.90;100.00;99234.94;15286019;19;20524;-82
2023/04/17 07:29:17;;;;;;;11.07;9.98;;;;;;;5.97;100.00;99249.56;15290855;19;20037;-83
2023/04/17 07:34:42;;;;;;;9.45;8.55;;;;;;;5.95;100.00;99254.16;15288748;19;20078;-84
2023/04/17 07:40:10;;;;;;;12.45;11.25;;;;;;;5.92;100.00;99241.03;15292427;19;20022;-84
2023/04/17 07:45:38;;;;;;;16.85;13.60;;;;;;;6.02;100.00;99252.81;15296929;19;20011;-83
2023/04/17 07:51:03;;;;;;;14.70;13.20;;;;;;;6.16;100.00;99266.03;15306759;19;20027;-84
2023/04/17 07:56:27;;;;;;;10.07;9.18;;;;;;;6.17;100.00;99265.03;15301873;19;20086;-84
2023/04/17 08:01:56;;;;;;;12.35;10.63;;;;;;;6.09;100.00;99264.75;15311273;19;20522;-84
2023/04/17 08:07:20;;;;;;;12.55;11.38;;;;;;;6.19;100.00;99272.97;15309437;19;20014;-85
2023/04/17 08:12:45;;;;;;;9.73;8.90;;;;;;;6.36;100.00;99281.56;15304873;19;20029;-84
2023/04/17 08:18:12;;;;;;;12.57;11.48;;;;;;;6.52;100.00;99284.00;15302963;19;20474;-84
2023/04/17 08:23:39;;;;;;;15.18;13.68;;;;;;;6.55;100.00;99281.06;15290565;19;20010;-86
2023/04/17 08:29:03;;;;;;;19.38;17.48;;;;;;;6.60;100.00;99281.59;15298692;19;20013;-85
2023/04/17 08:34:31;;;;;;;17.90;16.02;;;;;;;6.58;100.00;99280.84;15290019;19;20010;-85
2023/04/17 08:39:56;;;;;;;16.40;14.88;;;;;;;6.66;100.00;99267.72;15293144;19;20051;-85
2023/04/17 08:45:22;;;;;;;18.40;16.52;;;;;;;6.77;100.00;99281.16;15291457;19;20023;-83
2023/04/17 08:50:54;;;;;;;18.90;17.05;;;;;;;6.87;100.00;99291.22;15296141;19;20018;-83
2023/04/17 08:56:19;;;;;;;18.10;16.30;;;;;;;6.76;100.00;99282.13;15292012;19;20086;-85
2023/04/17 09:01:43;;;;;;;20.10;18.00;;;;;;;6.83;100.00;99279.00;15297275;19;20018;-84
2023/04/17 09:07:14;;;;;;;20.27;17.25;;;;;;;6.76;100.00;99273.25;15289005;19;20010;-85
2023/04/17 09:12:40;;;;;;;21.77;18.83;;;;;;;6.88;100.00;99272.31;15298203;19;20026;-85
2023/04/17 09:18:07;;;;;;;18.95;16.42;;;;;;;6.82;100.00;99271.94;15300022;19;20019;-84
2023/04/17 09:23:36;;;;;;;19.55;17.17;;;;;;;6.94;100.00;99265.66;15298443;19;20050;-84
2023/04/17 09:29:07;;;;;;;17.17;15.48;;;;;;;7.01;100.00;99249.97;15300017;19;20030;-84
2023/04/17 09:34:32;;;;;;;14.70;13.20;;;;;;;7.08;100.00;99246.69;15295893;19;20024;-85
2023/04/17 09:40:03;;;;;;;12.73;11.43;;;;;;;7.16;100.00;99240.75;15305799;19;20050;-86
2023/04/17 09:45:34;;;;;;;13.35;12.00;;;;;;;7.39;100.00;99212.13;15290554;19;20019;-85
2023/04/17 09:51:00;;;;;;;11.10;9.90;;;;;;;7.62;100.00;99213.94;15296485;19;20034;-85
2023/04/17 09:56:28;;;;;;;12.07;10.88;;;;;;;7.66;100.00;99213.59;15290062;19;20272;-85
2023/04/17 10:01:54;;;;;;;12.23;10.93;;;;;;;7.75;100.00;99205.75;15298129;19;20078;-85
2023/04/17 10:07:20;;;;;;;11.32;10.15;;;;;;;7.92;100.00;99202.56;15293207;19;20025;-88
2023/04/17 10:12:57;;;;;;;10.02;9.05;;;;;;;7.82;100.00;99185.53;15285841;19;20459;-88
2023/04/17 10:18:24;;;;;;;8.10;7.30;;;;;;;7.83;100.00;99181.84;15292350;19;20027;-86
2023/04/17 10:23:48;;;;;;;8.23;7.43;;;;;;;8.04;100.00;99173.88;15298665;19;20015;-87
2023/04/17 10:29:17;;;;;;;8.57;7.47;;;;;;;8.26;100.00;99177.44;15292188;19;20063;-87
2023/04/17 10:34:46;;;;;;;8.15;6.93;;;;;;;8.47;100.00;99181.06;15287979;19;20018;-87
2023/04/17 10:40:19;;;;;;;7.85;7.05;;;;;;;8.07;100.00;99162.88;15305947;19;20014;-88
2023/04/17 10:46:14;;;;;;;8.05;7.30;;;;;;;7.95;100.00;99162.06;15298620;19;20086;-86
2023/04/17 10:51:44;;;;;;;7.80;7.03;;;;;;;8.00;100.00;99162.53;15311952;19;20043;-84
2023/04/17 10:57:10;;;;;;;7.35;6.60;;;;;;;8.13;100.00;99172.25;15304352;19;20038;-84
2023/04/17 11:02:41;;;;;;;9.10;6.43;;;;;;;8.30;100.00;99160.97;15306845;19;20384;-85
2023/04/17 11:08:11;;;;;;;6.63;5.28;;;;;;;8.24;100.00;99147.19;15311868;19;20023;-82
2023/04/17 11:13:36;;;;;;;7.07;6.38;;;;;;;8.25;100.00;99163.19;15308201;19;20017;-85
2023/04/17 11:19:21;;;;;;;8.27;6.18;;;;;;;8.54;100.00;99151.84;15304774;19;20035;-83
2023/04/17 11:24:55;;;;;;;5.43;4.82;;;;;;;8.76;100.00;99131.22;15303045;19;20031;-86
2023/04/17 11:30:35;;;;;;;4.72;4.30;;;;;;;8.81;100.00;99128.97;15305682;19;20082;-83
2023/04/17 11:36:06;;;;;;;5.95;4.35;;;;;;;9.05;100.00;99139.47;15307002;19;20502;-83
2023/04/17 11:41:27;;;;;;;6.30;3.78;;;;;;;9.27;100.00;99120.56;15308981;19;20011;-87
2023/04/17 11:46:52;;;;;;;3.63;3.22;;;;;;;9.29;100.00;99115.91;15308408;19;20478;-84
2023/04/17 11:52:18;;;;;;;4.75;3.45;;;;;;;9.44;100.00;99114.56;15307626;19;20014;-83
2023/04/17 11:57:46;;;;;;;4.18;3.78;;;;;;;9.54;100.00;99110.06;15289989;19;20028;-85
2023/04/17 12:03:19;;;;;;;4.80;3.05;;;;;;;9.81;100.00;99116.63;15285407;19;20018;-83
2023/04/17 12:08:46;;;;;;;5.80;3.13;;;;;;;9.71;100.00;99100.47;15287788;19;20025;-83
2023/04/17 12:14:20;;;;;;;3.72;2.90;;;;;;;9.89;100.00;99101.59;15286664;19;20669;-83
2023/04/17 12:19:45;;;;;;;4.43;2.90;;;;;;;9.92;100.00;99104.88;15285119;19;20019;-83
2023/04/17 12:25:09;;;;;;;2.95;2.60;;;;;;;9.93;100.00;99103.88;15284416;19;20351;-83
2023/04/17 12:30:38;;;;;;;4.03;2.75;;;;;;;9.80;100.00;99090.69;15305871;19;20101;-83
2023/04/17 12:36:05;;;;;;;3.90;2.63;;;;;;;10.16;100.00;99085.63;15303077;19;20011;-83
2023/04/17 12:41:30;;;;;;;3.00;2.35;;;;;;;10.62;100.00;99087.72;15299828;19;20022;-84
2023/04/17 12:46:59;;;;;;;5.10;3.25;;;;;;;10.22;100.00;99099.50;15301084;19;20030;-84
2023/04/17 12:52:25;;;;;;;4.18;2.90;;;;;;;9.82;100.00;99099.47;15317763;19;20086;-85
2023/04/17 12:57:49;;;;;;;4.13;3.05;;;;;;;9.57;100.00;99092.78;15305193;19;20018;-83
2023/04/17 13:03:17;;;;;;;4.95;3.20;;;;;;;9.59;100.00;99114.16;15300651;19;20014;-82
2023/04/17 13:08:42;;;;;;;5.25;3.50;;;;;;;9.37;100.00;99108.00;15350395;19;20003;-84
2023/04/17 13:14:07;;;;;;;4.35;3.47;;;;;;;9.34;100.00;99111.81;15364390;19;20006;-78
2023/04/17 13:19:46;;;;;;;6.30;3.50;;;;;;;9.30;100.00;99112.22;15377044;19;20006;-80
2023/04/17 13:31:10;;;;;;;4.25;3.08;;;;;;;9.29;100.00;99113.22;15382438;19;20002;-81
2023/04/17 13:36:43;;;;;;;3.47;3.17;;;;;;;9.22;100.00;99111.09;15376390;19;20014;-81
2023/04/17 13:42:27;;;;;;;3.65;3.20;;;;;;;9.25;100.00;99101.88;15379672;19;20014;-82
2023/04/17 13:47:52;;;;;;;3.22;2.92;;;;;;;9.31;100.00;99103.19;15313921;19;20019;-87
2023/04/17 13:53:16;;;;;;;4.10;3.30;;;;;;;9.38;100.00;99099.81;15311019;19;20022;-84
2023/04/17 13:58:46;;;;;;;5.47;3.55;;;;;;;9.46;100.00;99080.31;15311686;19;20406;-85
2023/04/17 14:04:11;;;;;;;4.50;3.50;;;;;;;9.64;100.00;99087.69;15311585;19;20082;-86
2023/04/17 14:09:36;;;;;;;3.53;3.17;;;;;;;9.70;100.00;99095.22;15315740;19;20078;-82
2023/04/17 14:15:10;;;;;;;4.18;3.10;;;;;;;9.79;100.00;99083.63;15296311;19;20018;-85
2023/04/17 14:20:36;;;;;;;6.22;3.00;;;;;;;9.94;100.00;99084.03;15296735;19;20420;-85
2023/04/17 14:26:00;;;;;;;5.05;3.10;;;;;;;10.15;100.00;99073.16;15297912;19;20018;-85
2023/04/17 14:31:28;;;;;;;3.85;3.08;;;;;;;11.05;100.00;99077.38;15299018;19;20419;-85
2023/04/17 14:36:52;;;;;;;4.72;3.00;;;;;;;11.72;100.00;99064.47;15296677;19;20016;-85
2023/04/17 14:42:17;;;;;;;4.72;2.90;;;;;;;11.95;100.00;99061.31;15299098;19;20493;-85
2023/04/17 14:47:44;;;;;;;3.65;2.80;;;;;;;12.02;100.00;99053.50;15297539;19;20015;-84
2023/04/17 14:53:09;;;;;;;3.85;2.80;;;;;;;11.74;100.00;99060.78;15303646;19;20011;-84
2023/04/17 14:58:36;;;;;;;3.67;3.00;;;;;;;11.45;100.00;99062.69;15299507;19;20017;-84
2023/04/17 15:04:04;;;;;;;4.03;3.22;;;;;;;11.09;100.00;99067.97;15294627;19;20025;-84
2023/04/17 15:09:29;;;;;;;4.80;3.20;;;;;;;10.89;100.00;99067.19;15294821;19;20023;-84
2023/04/17 15:15:03;;;;;;;3.90;3.05;;;;;;;10.83;100.00;99083.97;15294447;19;20024;-86
2023/04/17 15:20:31;;;;;;;4.28;3.40;;;;;;;10.75;100.00;99088.25;15300060;19;20011;-85
2023/04/17 15:25:56;;;;;;;4.65;3.13;;;;;;;10.79;100.00;99088.81;15305294;19;20011;-82
2023/04/17 15:31:21;;;;;;;5.80;2.97;;;;;;;10.78;100.00;99093.34;15282655;19;20022;-84
2023/04/17 15:36:48;;;;;;;4.43;3.10;;;;;;;10.65;100.00;99087.41;15287360;19;20006;-84
2023/04/17 15:42:13;;;;;;;3.97;3.08;;;;;;;10.67;100.00;99084.59;15290173;19;20034;-85
2023/04/17 15:47:37;;;;;;;5.00;2.85;;;;;;;10.66;100.00;99082.88;15296840;19;20078;-81
2023/04/17 15:53:05;;;;;;;3.85;3.00;;;;;;;10.63;100.00;99084.03;15292413;19;20093;-82
2023/04/17 15:58:29;;;;;;;4.47;3.13;;;;;;;10.69;100.00;99082.59;15290347;19;20022;-85
2023/04/17 16:03:47;;;;;;;3.85;2.88;;;;;;;10.73;100.00;99079.47;15290387;19;20366;-82
2023/04/17 16:09:16;;;;;;;3.55;2.83;;;;;;;10.99;100.00;99073.44;15291025;19;20029;-85
2023/04/17 16:14:41;;;;;;;4.35;2.90;;;;;;;11.06;100.00;99074.50;15295012;19;20921;-84
2023/04/17 16:20:07;;;;;;;3.97;2.90;;;;;;;11.12;100.00;99072.22;15291084;19;20348;-82
2023/04/17 16:25:35;;;;;;;3.38;3.03;;;;;;;11.08;100.00;99077.91;15286169;19;20024;-87
2023/04/17 16:31:00;;;;;;;4.30;3.10;;;;;;;10.83;100.00;99079.41;15293583;19;20699;-87
2023/04/17 16:36:24;;;;;;;3.55;2.85;;;;;;;10.74;100.00;99083.00;15292382;19;20050;-86
2023/04/17 22:25:47;;;;;;;8.07;6.32;;;;;;;6.38;100.00;99242.16;15296754;19;20018;-83
2023/04/17 22:31:14;;;;;;;7.13;6.38;;;;;;;6.33;100.00;99239.84;15306916;19;20018;-83
2023/04/17 22:36:38;;;;;;;7.28;6.57;;;;;;;6.31;100.00;99242.63;15293298;19;20015;-84
2023/04/17 23:21:48;;;;;;;7.15;6.47;;;;;;;6.09;100.00;99254.06;15301697;19;20036;-47
2023/04/17 23:27:13;;;;;;;6.60;6.00;;;;;;;6.08;100.00;99257.69;15276594;19;20021;-49
2023/04/17 23:32:40;;;;;;;6.80;6.10;;;;;;;6.06;100.00;99248.91;15276303;19;20085;-49
2023/04/17 23:38:08;;;;;;;7.03;6.30;;;;;;;6.07;100.00;99247.97;15273026;19;20021;-48
2023/04/17 23:43:32;;;;;;;7.90;6.60;;;;;;;6.05;100.00;99244.56;15269265;19;20018;-51
2023/04/17 23:48:57;;;;;;;7.40;6.45;;;;;;;6.04;100.00;99244.66;15272951;19;20616;-48
2023/04/17 23:54:24;;;;;;;7.93;7.13;;;;;;;6.01;100.00;99240.41;15267430;19;20014;-46
2023/04/17 23:59:49;;;;;;;7.65;6.85;;;;;;;6.02;100.00;99252.81;15271204;19;20366;-46
